sensor_id;sensor_type;location;lat;lon;timestamp;temperature;humidity
4635;DHT22;2330;48.158;11.816;2023-07-31T00:01:43;17.60;98.50
4635;DHT22;2330;48.158;11.816;2023-07-31T00:04:10;17.50;98.50
4635;DHT22;2330;48.158;11.816;2023-07-31T00:06:37;17.40;98.50
4635;DHT22;2330;48.158;11.816;2023-07-31T00:09:04;17.30;98.50
4635;DHT22;2330;48.158;11.816;2023-07-31T00:11:31;17.30;98.50
4635;DHT22;2330;48.158;11.816;2023-07-31T00:13:58;17.20;98.50
4635;DHT22;2330;48.158;11.816;2023-07-31T00:16:25;17.20;98.50
4635;DHT22;2330;48.158;11.816;2023-07-31T00:18:52;17.00;98.50
4635;DHT22;2330;48.158;11.816;2023-07-31T00:21:19;17.00;98.50
4635;DHT22;2330;48.158;11.816;2023-07-31T00:23:46;17.00;98.50
4635;DHT22;2330;48.158;11.816;2023-07-31T00:26:13;17.00;98.50
4635;DHT22;2330;48.158;11.816;2023-07-31T00:28:39;17.00;98.50
4635;DHT22;2330;48.158;11.816;2023-07-31T00:31:06;17.00;98.50
4635;DHT22;2330;48.158;11.816;2023-07-31T00:33:35;17.00;98.50
4635;DHT22;2330;48.158;11.816;2023-07-31T00:36:02;17.00;98.50
4635;DHT22;2330;48.158;11.816;2023-07-31T00:38:29;17.00;98.50
4635;DHT22;2330;48.158;11.816;2023-07-31T00:40:56;17.10;98.50
4635;DHT22;2330;48.158;11.816;2023-07-31T00:43:24;17.10;98.50
4635;DHT22;2330;48.158;11.816;2023-07-31T00:45:51;17.00;98.50
4635;DHT22;2330;48.158;11.816;2023-07-31T00:48:18;17.00;98.50
4635;DHT22;2330;48.158;11.816;2023-07-31T00:50:45;16.90;98.50
4635;DHT22;2330;48.158;11.816;2023-07-31T00:53:11;16.90;98.50
4635;DHT22;2330;48.158;11.816;2023-07-31T00:55:39;16.90;98.50
4635;DHT22;2330;48.158;11.816;2023-07-31T00:58:06;16.90;98.50
4635;DHT22;2330;48.158;11.816;2023-07-31T01:00:33;16.90;98.50
4635;DHT22;2330;48.158;11.816;2023-07-31T01:03:00;16.80;98.50
4635;DHT22;2330;48.158;11.816;2023-07-31T01:05:43;16.80;98.50
4635;DHT22;2330;48.158;11.816;2023-07-31T01:08:24;16.80;98.50
4635;DHT22;2330;48.158;11.816;2023-07-31T01:11:04;16.80;98.50
4635;DHT22;2330;48.158;11.816;2023-07-31T01:13:34;16.70;98.50
4635;DHT22;2330;48.158;11.816;2023-07-31T01:16:02;16.80;98.50
4635;DHT22;2330;48.158;11.816;2023-07-31T01:18:29;16.70;98.50
4635;DHT22;2330;48.158;11.816;2023-07-31T01:21:10;16.70;98.50
4635;DHT22;2330;48.158;11.816;2023-07-31T01:26:21;16.80;98.50
4635;DHT22;2330;48.158;11.816;2023-07-31T01:29:10;16.70;98.50
4635;DHT22;2330;48.158;11.816;2023-07-31T01:31:40;16.60;98.50
4635;DHT22;2330;48.158;11.816;2023-07-31T01:34:09;16.60;98.50
4635;DHT22;2330;48.158;11.816;2023-07-31T01:36:36;16.70;98.50
4635;DHT22;2330;48.158;11.816;2023-07-31T01:39:04;16.70;98.50
4635;DHT22;2330;48.158;11.816;2023-07-31T01:41:31;16.70;98.50
4635;DHT22;2330;48.158;11.816;2023-07-31T01:43:58;16.70;98.50
4635;DHT22;2330;48.158;11.816;2023-07-31T01:46:24;16.60;98.50
4635;DHT22;2330;48.158;11.816;2023-07-31T01:48:51;16.60;98.50
4635;DHT22;2330;48.158;11.816;2023-07-31T01:51:18;16.50;98.50
4635;DHT22;2330;48.158;11.816;2023-07-31T01:53:45;16.60;98.50
4635;DHT22;2330;48.158;11.816;2023-07-31T01:56:12;16.60;98.50
4635;DHT22;2330;48.158;11.816;2023-07-31T01:58:39;16.60;98.50
4635;DHT22;2330;48.158;11.816;2023-07-31T02:01:05;16.70;98.50
4635;DHT22;2330;48.158;11.816;2023-07-31T02:03:32;16.70;98.50
4635;DHT22;2330;48.158;11.816;2023-07-31T02:05:59;16.70;98.50
4635;DHT22;2330;48.158;11.816;2023-07-31T02:08:26;16.60;98.50
4635;DHT22;2330;48.158;11.816;2023-07-31T02:10:53;16.60;98.50
4635;DHT22;2330;48.158;11.816;2023-07-31T02:13:20;16.60;98.50
4635;DHT22;2330;48.158;11.816;2023-07-31T02:15:48;16.60;98.50
4635;DHT22;2330;48.158;11.816;2023-07-31T02:18:14;16.60;98.50
4635;DHT22;2330;48.158;11.816;2023-07-31T02:20:41;16.60;98.50
4635;DHT22;2330;48.158;11.816;2023-07-31T02:23:08;16.60;98.50
4635;DHT22;2330;48.158;11.816;2023-07-31T02:25:35;16.60;98.50
4635;DHT22;2330;48.158;11.816;2023-07-31T02:28:02;16.60;98.50
4635;DHT22;2330;48.158;11.816;2023-07-31T02:30:28;16.60;98.50
4635;DHT22;2330;48.158;11.816;2023-07-31T02:32:55;16.60;98.50
4635;DHT22;2330;48.158;11.816;2023-07-31T02:35:22;16.60;98.50
4635;DHT22;2330;48.158;11.816;2023-07-31T02:37:49;16.60;98.50
4635;DHT22;2330;48.158;11.816;2023-07-31T02:40:16;16.60;98.50
4635;DHT22;2330;48.158;11.816;2023-07-31T02:42:42;16.60;98.50
4635;DHT22;2330;48.158;11.816;2023-07-31T02:45:09;16.60;98.50
4635;DHT22;2330;48.158;11.816;2023-07-31T02:47:36;16.60;98.50
4635;DHT22;2330;48.158;11.816;2023-07-31T02:50:03;16.60;98.50
4635;DHT22;2330;48.158;11.816;2023-07-31T02:52:31;16.60;98.50
4635;DHT22;2330;48.158;11.816;2023-07-31T02:54:58;16.70;98.50
4635;DHT22;2330;48.158;11.816;2023-07-31T02:57:25;16.70;98.50
4635;DHT22;2330;48.158;11.816;2023-07-31T02:59:51;16.70;98.50
4635;DHT22;2330;48.158;11.816;2023-07-31T03:02:18;16.70;98.50
4635;DHT22;2330;48.158;11.816;2023-07-31T03:04:45;16.60;98.50
4635;DHT22;2330;48.158;11.816;2023-07-31T03:07:13;16.60;98.50
4635;DHT22;2330;48.158;11.816;2023-07-31T03:09:40;16.60;98.50
4635;DHT22;2330;48.158;11.816;2023-07-31T03:12:07;16.50;98.50
4635;DHT22;2330;48.158;11.816;2023-07-31T03:14:34;16.50;98.50
4635;DHT22;2330;48.158;11.816;2023-07-31T03:17:01;16.50;98.50
4635;DHT22;2330;48.158;11.816;2023-07-31T03:19:31;16.60;98.50
4635;DHT22;2330;48.158;11.816;2023-07-31T03:21:59;16.50;98.50
4635;DHT22;2330;48.158;11.816;2023-07-31T03:24:26;16.60;98.50
4635;DHT22;2330;48.158;11.816;2023-07-31T03:26:54;16.60;98.50
4635;DHT22;2330;48.158;11.816;2023-07-31T03:29:21;16.60;98.50
4635;DHT22;2330;48.158;11.816;2023-07-31T03:31:50;16.50;98.50
4635;DHT22;2330;48.158;11.816;2023-07-31T03:34:17;16.40;98.50
4635;DHT22;2330;48.158;11.816;2023-07-31T03:36:44;16.30;98.50
4635;DHT22;2330;48.158;11.816;2023-07-31T03:39:11;16.30;98.50
4635;DHT22;2330;48.158;11.816;2023-07-31T03:41:38;16.30;98.50
4635;DHT22;2330;48.158;11.816;2023-07-31T03:44:05;16.30;98.50
4635;DHT22;2330;48.158;11.816;2023-07-31T03:46:32;16.30;98.50
4635;DHT22;2330;48.158;11.816;2023-07-31T03:48:59;16.30;98.50
4635;DHT22;2330;48.158;11.816;2023-07-31T03:51:26;16.30;98.50
4635;DHT22;2330;48.158;11.816;2023-07-31T03:53:52;16.20;98.50
4635;DHT22;2330;48.158;11.816;2023-07-31T03:56:19;16.20;98.50
4635;DHT22;2330;48.158;11.816;2023-07-31T03:58:46;16.10;98.50
4635;DHT22;2330;48.158;11.816;2023-07-31T04:01:13;16.10;98.50
4635;DHT22;2330;48.158;11.816;2023-07-31T04:03:40;16.10;98.50
4635;DHT22;2330;48.158;11.816;2023-07-31T04:06:07;16.10;98.50
4635;DHT22;2330;48.158;11.816;2023-07-31T04:08:34;16.10;98.50
4635;DHT22;2330;48.158;11.816;2023-07-31T04:11:01;16.20;98.50
4635;DHT22;2330;48.158;11.816;2023-07-31T04:13:29;16.20;98.50
4635;DHT22;2330;48.158;11.816;2023-07-31T04:15:56;16.20;98.50
4635;DHT22;2330;48.158;11.816;2023-07-31T04:18:25;16.20;98.50
4635;DHT22;2330;48.158;11.816;2023-07-31T04:20:52;16.20;98.50
4635;DHT22;2330;48.158;11.816;2023-07-31T04:23:18;16.30;98.50
4635;DHT22;2330;48.158;11.816;2023-07-31T04:25:45;16.30;98.50
4635;DHT22;2330;48.158;11.816;2023-07-31T04:28:12;16.40;98.50
4635;DHT22;2330;48.158;11.816;2023-07-31T04:30:39;16.40;98.50
4635;DHT22;2330;48.158;11.816;2023-07-31T04:33:06;16.40;98.50
4635;DHT22;2330;48.158;11.816;2023-07-31T04:35:33;16.40;98.50
4635;DHT22;2330;48.158;11.816;2023-07-31T04:37:59;16.50;98.50
4635;DHT22;2330;48.158;11.816;2023-07-31T04:40:26;16.50;98.50
4635;DHT22;2330;48.158;11.816;2023-07-31T04:42:53;16.50;98.50
4635;DHT22;2330;48.158;11.816;2023-07-31T04:45:20;16.60;98.50
4635;DHT22;2330;48.158;11.816;2023-07-31T04:47:47;16.60;98.50
4635;DHT22;2330;48.158;11.816;2023-07-31T04:50:14;16.60;98.50
4635;DHT22;2330;48.158;11.816;2023-07-31T04:52:40;16.70;98.50
4635;DHT22;2330;48.158;11.816;2023-07-31T04:55:07;16.70;98.50
4635;DHT22;2330;48.158;11.816;2023-07-31T04:57:34;16.70;98.50
4635;DHT22;2330;48.158;11.816;2023-07-31T05:00:01;16.80;98.50
4635;DHT22;2330;48.158;11.816;2023-07-31T05:02:28;16.80;98.50
4635;DHT22;2330;48.158;11.816;2023-07-31T05:04:54;16.90;98.50
4635;DHT22;2330;48.158;11.816;2023-07-31T05:07:21;16.90;98.50
4635;DHT22;2330;48.158;11.816;2023-07-31T05:09:48;17.00;98.50
4635;DHT22;2330;48.158;11.816;2023-07-31T05:12:15;17.10;98.50
4635;DHT22;2330;48.158;11.816;2023-07-31T05:14:42;17.20;98.50
4635;DHT22;2330;48.158;11.816;2023-07-31T05:17:08;17.40;98.50
4635;DHT22;2330;48.158;11.816;2023-07-31T05:19:35;17.70;98.50
4635;DHT22;2330;48.158;11.816;2023-07-31T05:22:02;17.90;98.50
4635;DHT22;2330;48.158;11.816;2023-07-31T05:24:29;18.10;98.50
4635;DHT22;2330;48.158;11.816;2023-07-31T05:26:56;18.30;98.50
4635;DHT22;2330;48.158;11.816;2023-07-31T05:29:22;18.40;98.50
4635;DHT22;2330;48.158;11.816;2023-07-31T05:31:49;18.40;98.50
4635;DHT22;2330;48.158;11.816;2023-07-31T05:34:16;18.40;98.50
4635;DHT22;2330;48.158;11.816;2023-07-31T05:36:43;18.40;98.50
4635;DHT22;2330;48.158;11.816;2023-07-31T05:39:10;18.60;98.50
4635;DHT22;2330;48.158;11.816;2023-07-31T05:41:37;18.70;98.50
4635;DHT22;2330;48.158;11.816;2023-07-31T05:44:04;18.80;98.50
4635;DHT22;2330;48.158;11.816;2023-07-31T05:46:30;18.90;98.50
4635;DHT22;2330;48.158;11.816;2023-07-31T05:48:58;19.20;98.50
4635;DHT22;2330;48.158;11.816;2023-07-31T05:51:27;19.40;98.50
4635;DHT22;2330;48.158;11.816;2023-07-31T05:53:54;19.70;98.50
4635;DHT22;2330;48.158;11.816;2023-07-31T05:56:21;19.80;98.50
4635;DHT22;2330;48.158;11.816;2023-07-31T05:58:48;19.80;98.50
4635;DHT22;2330;48.158;11.816;2023-07-31T06:01:17;20.00;98.50
4635;DHT22;2330;48.158;11.816;2023-07-31T06:03:44;20.10;98.50
4635;DHT22;2330;48.158;11.816;2023-07-31T06:06:11;20.10;98.40
4635;DHT22;2330;48.158;11.816;2023-07-31T06:08:38;20.10;98.40
4635;DHT22;2330;48.158;11.816;2023-07-31T06:11:05;20.10;97.80
4635;DHT22;2330;48.158;11.816;2023-07-31T06:13:32;19.90;97.80
4635;DHT22;2330;48.158;11.816;2023-07-31T06:15:59;19.80;98.50
4635;DHT22;2330;48.158;11.816;2023-07-31T06:18:26;19.80;98.50
4635;DHT22;2330;48.158;11.816;2023-07-31T06:20:53;19.80;98.50
4635;DHT22;2330;48.158;11.816;2023-07-31T06:23:20;19.80;98.50
4635;DHT22;2330;48.158;11.816;2023-07-31T06:25:47;19.90;98.30
4635;DHT22;2330;48.158;11.816;2023-07-31T06:28:14;19.90;97.80
4635;DHT22;2330;48.158;11.816;2023-07-31T06:30:41;19.90;98.00
4635;DHT22;2330;48.158;11.816;2023-07-31T06:33:08;20.00;97.70
4635;DHT22;2330;48.158;11.816;2023-07-31T06:35:36;20.20;97.10
4635;DHT22;2330;48.158;11.816;2023-07-31T06:38:02;20.30;96.90
4635;DHT22;2330;48.158;11.816;2023-07-31T06:40:30;20.30;96.30
4635;DHT22;2330;48.158;11.816;2023-07-31T06:42:57;20.40;96.30
4635;DHT22;2330;48.158;11.816;2023-07-31T06:45:23;20.40;95.70
4635;DHT22;2330;48.158;11.816;2023-07-31T06:47:50;20.50;96.10
4635;DHT22;2330;48.158;11.816;2023-07-31T06:50:17;20.60;95.00
4635;DHT22;2330;48.158;11.816;2023-07-31T06:52:44;20.60;95.20
4635;DHT22;2330;48.158;11.816;2023-07-31T06:55:21;20.50;95.00
4635;DHT22;2330;48.158;11.816;2023-07-31T06:57:52;20.40;95.70
4635;DHT22;2330;48.158;11.816;2023-07-31T07:00:20;20.20;95.30
4635;DHT22;2330;48.158;11.816;2023-07-31T07:02:48;20.30;95.20
4635;DHT22;2330;48.158;11.816;2023-07-31T07:05:17;20.40;95.60
4635;DHT22;2330;48.158;11.816;2023-07-31T07:07:44;20.50;95.00
4635;DHT22;2330;48.158;11.816;2023-07-31T07:10:11;20.70;94.80
4635;DHT22;2330;48.158;11.816;2023-07-31T07:12:38;20.90;93.70
4635;DHT22;2330;48.158;11.816;2023-07-31T07:15:05;21.10;93.20
4635;DHT22;2330;48.158;11.816;2023-07-31T07:17:32;21.10;93.30
4635;DHT22;2330;48.158;11.816;2023-07-31T07:20:00;21.10;92.40
4635;DHT22;2330;48.158;11.816;2023-07-31T07:22:26;21.00;92.50
4635;DHT22;2330;48.158;11.816;2023-07-31T07:24:54;21.10;92.60
4635;DHT22;2330;48.158;11.816;2023-07-31T07:27:21;20.90;93.10
4635;DHT22;2330;48.158;11.816;2023-07-31T07:29:50;20.90;93.50
4635;DHT22;2330;48.158;11.816;2023-07-31T07:32:17;21.00;92.80
4635;DHT22;2330;48.158;11.816;2023-07-31T07:34:44;21.00;91.80
4635;DHT22;2330;48.158;11.816;2023-07-31T07:37:11;21.00;92.70
4635;DHT22;2330;48.158;11.816;2023-07-31T07:39:38;21.30;93.00
4635;DHT22;2330;48.158;11.816;2023-07-31T07:42:05;21.50;91.60
4635;DHT22;2330;48.158;11.816;2023-07-31T07:44:32;21.70;90.30
4635;DHT22;2330;48.158;11.816;2023-07-31T07:46:59;21.60;90.70
4635;DHT22;2330;48.158;11.816;2023-07-31T07:49:26;21.50;90.10
4635;DHT22;2330;48.158;11.816;2023-07-31T07:51:52;21.50;91.30
4635;DHT22;2330;48.158;11.816;2023-07-31T07:54:19;21.50;91.30
4635;DHT22;2330;48.158;11.816;2023-07-31T07:56:48;21.30;91.10
4635;DHT22;2330;48.158;11.816;2023-07-31T07:59:14;21.20;91.60
4635;DHT22;2330;48.158;11.816;2023-07-31T08:01:41;21.00;91.50
4635;DHT22;2330;48.158;11.816;2023-07-31T08:04:08;21.00;91.80
4635;DHT22;2330;48.158;11.816;2023-07-31T08:06:35;21.20;92.20
4635;DHT22;2330;48.158;11.816;2023-07-31T08:09:02;21.60;90.60
4635;DHT22;2330;48.158;11.816;2023-07-31T08:11:33;22.00;90.50
4635;DHT22;2330;48.158;11.816;2023-07-31T08:14:00;22.50;89.20
4635;DHT22;2330;48.158;11.816;2023-07-31T08:16:27;22.90;87.30
4635;DHT22;2330;48.158;11.816;2023-07-31T08:18:54;23.30;87.60
4635;DHT22;2330;48.158;11.816;2023-07-31T08:21:21;23.60;86.50
4635;DHT22;2330;48.158;11.816;2023-07-31T08:23:48;23.90;85.80
4635;DHT22;2330;48.158;11.816;2023-07-31T08:26:16;24.20;84.10
4635;DHT22;2330;48.158;11.816;2023-07-31T08:28:43;24.40;83.70
4635;DHT22;2330;48.158;11.816;2023-07-31T08:31:10;24.70;83.70
4635;DHT22;2330;48.158;11.816;2023-07-31T08:33:38;24.70;80.80
4635;DHT22;2330;48.158;11.816;2023-07-31T08:36:05;24.00;82.40
4635;DHT22;2330;48.158;11.816;2023-07-31T08:38:32;24.30;83.20
4635;DHT22;2330;48.158;11.816;2023-07-31T08:40:59;24.50;82.20
4635;DHT22;2330;48.158;11.816;2023-07-31T08:43:27;24.60;82.40
4635;DHT22;2330;48.158;11.816;2023-07-31T08:45:54;24.40;82.60
4635;DHT22;2330;48.158;11.816;2023-07-31T08:48:22;24.30;83.90
4635;DHT22;2330;48.158;11.816;2023-07-31T08:50:51;24.30;84.80
4635;DHT22;2330;48.158;11.816;2023-07-31T08:53:18;24.30;83.80
4635;DHT22;2330;48.158;11.816;2023-07-31T08:55:45;24.30;82.50
4635;DHT22;2330;48.158;11.816;2023-07-31T08:58:13;23.90;81.90
4635;DHT22;2330;48.158;11.816;2023-07-31T09:00:41;23.70;81.80
4635;DHT22;2330;48.158;11.816;2023-07-31T09:03:14;23.00;82.60
4635;DHT22;2330;48.158;11.816;2023-07-31T09:05:43;22.70;84.30
4635;DHT22;2330;48.158;11.816;2023-07-31T09:08:13;22.60;84.20
4635;DHT22;2330;48.158;11.816;2023-07-31T09:10:44;22.20;85.00
4635;DHT22;2330;48.158;11.816;2023-07-31T09:13:13;21.70;85.80
4635;DHT22;2330;48.158;11.816;2023-07-31T09:15:43;21.60;86.00
4635;DHT22;2330;48.158;11.816;2023-07-31T09:18:10;21.40;87.90
4635;DHT22;2330;48.158;11.816;2023-07-31T09:20:37;21.40;89.30
4635;DHT22;2330;48.158;11.816;2023-07-31T09:23:09;21.40;89.50
4635;DHT22;2330;48.158;11.816;2023-07-31T09:25:37;21.40;90.60
4635;DHT22;2330;48.158;11.816;2023-07-31T09:28:11;21.50;89.50
4635;DHT22;2330;48.158;11.816;2023-07-31T09:30:50;21.80;89.90
4635;DHT22;2330;48.158;11.816;2023-07-31T09:33:18;22.10;89.60
4635;DHT22;2330;48.158;11.816;2023-07-31T09:35:46;22.20;88.00
4635;DHT22;2330;48.158;11.816;2023-07-31T09:38:15;22.30;87.70
4635;DHT22;2330;48.158;11.816;2023-07-31T09:40:45;22.80;88.00
4635;DHT22;2330;48.158;11.816;2023-07-31T09:43:14;23.10;85.90
4635;DHT22;2330;48.158;11.816;2023-07-31T09:45:43;23.10;85.70
4635;DHT22;2330;48.158;11.816;2023-07-31T09:48:13;23.10;85.80
4635;DHT22;2330;48.158;11.816;2023-07-31T09:50:47;23.10;86.50
4635;DHT22;2330;48.158;11.816;2023-07-31T09:53:16;23.20;83.80
4635;DHT22;2330;48.158;11.816;2023-07-31T09:55:43;23.00;84.50
4635;DHT22;2330;48.158;11.816;2023-07-31T09:58:12;22.90;84.80
4635;DHT22;2330;48.158;11.816;2023-07-31T10:00:39;22.90;84.70
4635;DHT22;2330;48.158;11.816;2023-07-31T10:03:10;23.10;85.40
4635;DHT22;2330;48.158;11.816;2023-07-31T10:05:42;23.20;84.10
4635;DHT22;2330;48.158;11.816;2023-07-31T10:08:14;23.30;85.30
4635;DHT22;2330;48.158;11.816;2023-07-31T10:10:42;23.50;84.60
4635;DHT22;2330;48.158;11.816;2023-07-31T10:13:10;23.60;83.00
4635;DHT22;2330;48.158;11.816;2023-07-31T10:15:38;23.60;82.90
4635;DHT22;2330;48.158;11.816;2023-07-31T10:18:08;23.70;81.80
4635;DHT22;2330;48.158;11.816;2023-07-31T10:20:35;24.00;81.40
4635;DHT22;2330;48.158;11.816;2023-07-31T10:23:03;24.20;81.50
4635;DHT22;2330;48.158;11.816;2023-07-31T10:25:30;24.30;82.50
4635;DHT22;2330;48.158;11.816;2023-07-31T10:27:58;24.60;80.80
4635;DHT22;2330;48.158;11.816;2023-07-31T10:30:28;24.60;81.50
4635;DHT22;2330;48.158;11.816;2023-07-31T10:32:57;24.40;83.30
4635;DHT22;2330;48.158;11.816;2023-07-31T10:35:24;24.80;81.00
4635;DHT22;2330;48.158;11.816;2023-07-31T10:37:52;25.10;80.30
4635;DHT22;2330;48.158;11.816;2023-07-31T10:40:26;25.50;80.10
4635;DHT22;2330;48.158;11.816;2023-07-31T10:42:55;25.80;80.00
4635;DHT22;2330;48.158;11.816;2023-07-31T10:45:27;25.80;79.60
4635;DHT22;2330;48.158;11.816;2023-07-31T10:48:00;25.50;77.40
4635;DHT22;2330;48.158;11.816;2023-07-31T10:50:29;25.50;76.90
4635;DHT22;2330;48.158;11.816;2023-07-31T10:52:57;25.50;78.60
4635;DHT22;2330;48.158;11.816;2023-07-31T10:55:41;25.80;77.90
4635;DHT22;2330;48.158;11.816;2023-07-31T10:58:13;25.80;77.70
4635;DHT22;2330;48.158;11.816;2023-07-31T11:00:41;26.00;76.90
4635;DHT22;2330;48.158;11.816;2023-07-31T11:03:19;25.90;76.20
4635;DHT22;2330;48.158;11.816;2023-07-31T11:08:26;25.50;76.40
4635;DHT22;2330;48.158;11.816;2023-07-31T11:13:31;25.60;76.40
4635;DHT22;2330;48.158;11.816;2023-07-31T11:15:58;25.30;76.10
4635;DHT22;2330;48.158;11.816;2023-07-31T11:18:26;25.20;76.50
4635;DHT22;2330;48.158;11.816;2023-07-31T11:20:54;25.20;77.50
4635;DHT22;2330;48.158;11.816;2023-07-31T11:23:21;25.40;76.70
4635;DHT22;2330;48.158;11.816;2023-07-31T11:25:49;25.70;77.20
4635;DHT22;2330;48.158;11.816;2023-07-31T11:28:18;26.20;75.10
4635;DHT22;2330;48.158;11.816;2023-07-31T11:30:46;26.40;75.30
4635;DHT22;2330;48.158;11.816;2023-07-31T11:33:13;26.50;73.80
4635;DHT22;2330;48.158;11.816;2023-07-31T11:35:45;26.80;74.80
4635;DHT22;2330;48.158;11.816;2023-07-31T11:38:24;27.00;72.30
4635;DHT22;2330;48.158;11.816;2023-07-31T11:40:53;27.00;72.10
4635;DHT22;2330;48.158;11.816;2023-07-31T11:43:20;26.90;72.10
4635;DHT22;2330;48.158;11.816;2023-07-31T11:45:49;27.20;71.70
4635;DHT22;2330;48.158;11.816;2023-07-31T11:48:24;27.00;72.00
4635;DHT22;2330;48.158;11.816;2023-07-31T11:50:52;27.20;71.60
4635;DHT22;2330;48.158;11.816;2023-07-31T11:53:24;27.30;70.80
4635;DHT22;2330;48.158;11.816;2023-07-31T11:55:52;27.00;72.00
4635;DHT22;2330;48.158;11.816;2023-07-31T11:58:20;27.00;72.80
4635;DHT22;2330;48.158;11.816;2023-07-31T12:00:47;26.90;72.80
4635;DHT22;2330;48.158;11.816;2023-07-31T12:03:15;26.70;71.90
4635;DHT22;2330;48.158;11.816;2023-07-31T12:05:47;26.60;73.20
4635;DHT22;2330;48.158;11.816;2023-07-31T12:08:14;26.70;72.50
4635;DHT22;2330;48.158;11.816;2023-07-31T12:10:42;26.70;72.20
4635;DHT22;2330;48.158;11.816;2023-07-31T12:13:19;26.70;73.20
4635;DHT22;2330;48.158;11.816;2023-07-31T12:15:48;26.60;72.30
4635;DHT22;2330;48.158;11.816;2023-07-31T12:18:19;26.00;72.50
4635;DHT22;2330;48.158;11.816;2023-07-31T12:20:48;26.00;73.80
4635;DHT22;2330;48.158;11.816;2023-07-31T12:23:36;26.20;73.10
4635;DHT22;2330;48.158;11.816;2023-07-31T12:28:42;26.70;71.90
4635;DHT22;2330;48.158;11.816;2023-07-31T12:31:17;27.00;72.30
4635;DHT22;2330;48.158;11.816;2023-07-31T12:33:44;27.20;70.10
4635;DHT22;2330;48.158;11.816;2023-07-31T12:36:16;26.80;70.30
4635;DHT22;2330;48.158;11.816;2023-07-31T12:38:44;26.40;71.90
4635;DHT22;2330;48.158;11.816;2023-07-31T12:41:12;26.30;73.00
4635;DHT22;2330;48.158;11.816;2023-07-31T12:43:41;26.40;74.00
4635;DHT22;2330;48.158;11.816;2023-07-31T12:46:09;26.60;73.30
4635;DHT22;2330;48.158;11.816;2023-07-31T12:48:37;26.60;72.00
4635;DHT22;2330;48.158;11.816;2023-07-31T12:51:05;26.60;72.10
4635;DHT22;2330;48.158;11.816;2023-07-31T12:53:33;26.70;72.90
4635;DHT22;2330;48.158;11.816;2023-07-31T12:55:59;26.60;73.50
4635;DHT22;2330;48.158;11.816;2023-07-31T12:58:28;26.70;71.70
4635;DHT22;2330;48.158;11.816;2023-07-31T13:00:54;26.70;71.90
4635;DHT22;2330;48.158;11.816;2023-07-31T13:03:21;26.70;72.30
4635;DHT22;2330;48.158;11.816;2023-07-31T13:05:48;26.70;71.80
4635;DHT22;2330;48.158;11.816;2023-07-31T13:08:16;26.60;72.00
4635;DHT22;2330;48.158;11.816;2023-07-31T13:10:44;26.90;72.50
4635;DHT22;2330;48.158;11.816;2023-07-31T13:13:11;26.90;73.20
4635;DHT22;2330;48.158;11.816;2023-07-31T13:15:38;26.50;72.50
4635;DHT22;2330;48.158;11.816;2023-07-31T13:18:05;26.50;73.40
4635;DHT22;2330;48.158;11.816;2023-07-31T13:20:32;27.10;72.50
4635;DHT22;2330;48.158;11.816;2023-07-31T13:22:58;27.90;69.50
4635;DHT22;2330;48.158;11.816;2023-07-31T13:25:25;28.10;69.50
4635;DHT22;2330;48.158;11.816;2023-07-31T13:27:52;28.20;70.10
4635;DHT22;2330;48.158;11.816;2023-07-31T13:30:19;28.20;70.30
4635;DHT22;2330;48.158;11.816;2023-07-31T13:32:45;28.30;69.70
4635;DHT22;2330;48.158;11.816;2023-07-31T13:35:12;28.40;69.60
4635;DHT22;2330;48.158;11.816;2023-07-31T13:37:39;28.50;68.80
4635;DHT22;2330;48.158;11.816;2023-07-31T13:40:07;28.30;67.90
4635;DHT22;2330;48.158;11.816;2023-07-31T13:42:34;28.00;69.20
4635;DHT22;2330;48.158;11.816;2023-07-31T13:45:00;27.50;69.40
4635;DHT22;2330;48.158;11.816;2023-07-31T13:47:31;27.40;70.40
4635;DHT22;2330;48.158;11.816;2023-07-31T13:50:00;27.40;69.70
4635;DHT22;2330;48.158;11.816;2023-07-31T13:52:26;27.40;70.30
4635;DHT22;2330;48.158;11.816;2023-07-31T13:54:53;27.60;70.20
4635;DHT22;2330;48.158;11.816;2023-07-31T13:57:20;27.40;70.50
4635;DHT22;2330;48.158;11.816;2023-07-31T13:59:47;27.40;69.90
4635;DHT22;2330;48.158;11.816;2023-07-31T14:02:13;27.70;69.40
4635;DHT22;2330;48.158;11.816;2023-07-31T14:04:41;28.10;68.70
4635;DHT22;2330;48.158;11.816;2023-07-31T14:07:08;28.40;69.70
4635;DHT22;2330;48.158;11.816;2023-07-31T14:09:35;28.00;69.60
4635;DHT22;2330;48.158;11.816;2023-07-31T14:12:02;27.70;70.40
4635;DHT22;2330;48.158;11.816;2023-07-31T14:14:29;27.30;71.00
4635;DHT22;2330;48.158;11.816;2023-07-31T14:16:58;26.70;71.50
4635;DHT22;2330;48.158;11.816;2023-07-31T14:19:25;26.90;72.50
4635;DHT22;2330;48.158;11.816;2023-07-31T14:21:52;27.60;70.50
4635;DHT22;2330;48.158;11.816;2023-07-31T14:24:35;27.60;69.20
4635;DHT22;2330;48.158;11.816;2023-07-31T14:27:02;27.70;68.70
4635;DHT22;2330;48.158;11.816;2023-07-31T14:29:29;28.00;68.20
4635;DHT22;2330;48.158;11.816;2023-07-31T14:31:56;28.10;68.00
4635;DHT22;2330;48.158;11.816;2023-07-31T14:34:23;28.20;68.70
4635;DHT22;2330;48.158;11.816;2023-07-31T14:36:50;28.40;67.40
4635;DHT22;2330;48.158;11.816;2023-07-31T14:39:17;28.40;67.90
4635;DHT22;2330;48.158;11.816;2023-07-31T14:41:44;28.50;68.60
4635;DHT22;2330;48.158;11.816;2023-07-31T14:44:10;28.10;69.30
4635;DHT22;2330;48.158;11.816;2023-07-31T14:46:37;28.00;68.90
4635;DHT22;2330;48.158;11.816;2023-07-31T14:49:04;27.90;69.90
4635;DHT22;2330;48.158;11.816;2023-07-31T14:51:31;27.50;71.60
4635;DHT22;2330;48.158;11.816;2023-07-31T14:53:58;27.00;71.60
4635;DHT22;2330;48.158;11.816;2023-07-31T14:56:25;26.70;71.70
4635;DHT22;2330;48.158;11.816;2023-07-31T14:58:53;26.60;73.30
4635;DHT22;2330;48.158;11.816;2023-07-31T15:01:20;26.40;71.80
4635;DHT22;2330;48.158;11.816;2023-07-31T15:03:47;26.30;73.00
4635;DHT22;2330;48.158;11.816;2023-07-31T15:06:14;26.30;70.60
4635;DHT22;2330;48.158;11.816;2023-07-31T15:08:41;26.20;71.20
4635;DHT22;2330;48.158;11.816;2023-07-31T15:11:10;26.20;71.20
4635;DHT22;2330;48.158;11.816;2023-07-31T15:13:37;26.30;71.80
4635;DHT22;2330;48.158;11.816;2023-07-31T15:16:04;26.40;72.30
4635;DHT22;2330;48.158;11.816;2023-07-31T15:18:31;26.20;73.30
4635;DHT22;2330;48.158;11.816;2023-07-31T15:20:57;26.10;74.70
4635;DHT22;2330;48.158;11.816;2023-07-31T15:23:24;26.00;74.50
4635;DHT22;2330;48.158;11.816;2023-07-31T15:25:52;25.60;74.80
4635;DHT22;2330;48.158;11.816;2023-07-31T15:28:19;25.40;74.20
4635;DHT22;2330;48.158;11.816;2023-07-31T15:30:46;25.30;73.80
4635;DHT22;2330;48.158;11.816;2023-07-31T15:33:15;25.20;74.10
4635;DHT22;2330;48.158;11.816;2023-07-31T15:35:41;25.30;74.00
4635;DHT22;2330;48.158;11.816;2023-07-31T15:38:09;25.30;74.20
4635;DHT22;2330;48.158;11.816;2023-07-31T15:40:38;25.40;75.50
4635;DHT22;2330;48.158;11.816;2023-07-31T15:43:06;25.50;76.30
4635;DHT22;2330;48.158;11.816;2023-07-31T15:45:37;25.40;76.80
4635;DHT22;2330;48.158;11.816;2023-07-31T15:48:04;24.90;75.80
4635;DHT22;2330;48.158;11.816;2023-07-31T15:50:33;24.70;75.40
4635;DHT22;2330;48.158;11.816;2023-07-31T15:53:02;24.70;76.10
4635;DHT22;2330;48.158;11.816;2023-07-31T15:55:29;24.70;76.30
4635;DHT22;2330;48.158;11.816;2023-07-31T15:58:02;24.50;76.00
4635;DHT22;2330;48.158;11.816;2023-07-31T16:00:32;24.40;76.80